sensor_id;sensor_type;location;lat;lon;timestamp;P1;durP1;ratioP1;P2;durP2;ratioP2
70549;SDS011;58101;48.658;2.328;2024-03-23T00:52:06;13.90;;;3.20;;
70549;SDS011;58101;48.658;2.328;2024-03-23T00:54:32;14.02;;;2.95;;
70549;SDS011;58101;48.658;2.328;2024-03-23T00:56:57;13.88;;;2.92;;
70549;SDS011;58101;48.658;2.328;2024-03-23T00:59:23;14.95;;;3.03;;
70549;SDS011;58101;48.658;2.328;2024-03-23T01:01:52;14.52;;;3.25;;
70549;SDS011;58101;48.658;2.328;2024-03-23T01:04:18;15.27;;;2.83;;
70549;SDS011;58101;48.658;2.328;2024-03-23T01:06:43;15.65;;;3.05;;
70549;SDS011;58101;48.658;2.328;2024-03-23T01:09:09;14.93;;;2.90;;
70549;SDS011;58101;48.658;2.328;2024-03-23T01:11:36;13.63;;;2.67;;
70549;SDS011;58101;48.658;2.328;2024-03-23T01:14:02;11.60;;;2.47;;
70549;SDS011;58101;48.658;2.328;2024-03-23T01:16:27;13.70;;;3.05;;
70549;SDS011;58101;48.658;2.328;2024-03-23T01:18:53;12.02;;;2.55;;
70549;SDS011;58101;48.658;2.328;2024-03-23T01:21:19;18.20;;;2.60;;
70549;SDS011;58101;48.658;2.328;2024-03-23T01:23:44;13.45;;;2.60;;
70549;SDS011;58101;48.658;2.328;2024-03-23T01:26:10;14.02;;;3.00;;
70549;SDS011;58101;48.658;2.328;2024-03-23T01:28:35;14.25;;;2.58;;
70549;SDS011;58101;48.658;2.328;2024-03-23T01:31:01;14.77;;;2.50;;
70549;SDS011;58101;48.658;2.328;2024-03-23T01:33:27;17.50;;;2.78;;
70549;SDS011;58101;48.658;2.328;2024-03-23T01:35:53;16.90;;;2.60;;
70549;SDS011;58101;48.658;2.328;2024-03-23T01:38:18;16.92;;;2.72;;
70549;SDS011;58101;48.658;2.328;2024-03-23T01:40:44;15.75;;;2.85;;
70549;SDS011;58101;48.658;2.328;2024-03-23T01:43:09;14.77;;;2.58;;
70549;SDS011;58101;48.658;2.328;2024-03-23T01:45:35;16.45;;;2.92;;
70549;SDS011;58101;48.658;2.328;2024-03-23T01:48:01;13.52;;;2.72;;
70549;SDS011;58101;48.658;2.328;2024-03-23T01:50:28;17.38;;;3.03;;
70549;SDS011;58101;48.658;2.328;2024-03-23T01:52:55;14.55;;;3.17;;
70549;SDS011;58101;48.658;2.328;2024-03-23T01:55:22;15.02;;;2.70;;
70549;SDS011;58101;48.658;2.328;2024-03-23T01:57:48;16.77;;;2.72;;
70549;SDS011;58101;48.658;2.328;2024-03-23T02:00:14;14.38;;;2.92;;
70549;SDS011;58101;48.658;2.328;2024-03-23T02:02:43;13.85;;;2.92;;
70549;SDS011;58101;48.658;2.328;2024-03-23T02:05:10;15.48;;;2.90;;
70549;SDS011;58101;48.658;2.328;2024-03-23T02:07:37;13.45;;;2.80;;
70549;SDS011;58101;48.658;2.328;2024-03-23T02:10:06;13.15;;;3.17;;
70549;SDS011;58101;48.658;2.328;2024-03-23T02:12:33;14.35;;;2.88;;
70549;SDS011;58101;48.658;2.328;2024-03-23T02:14:59;12.32;;;2.70;;
70549;SDS011;58101;48.658;2.328;2024-03-23T02:17:25;17.25;;;3.42;;
70549;SDS011;58101;48.658;2.328;2024-03-23T02:19:50;12.82;;;2.78;;
70549;SDS011;58101;48.658;2.328;2024-03-23T02:22:16;15.57;;;3.00;;
70549;SDS011;58101;48.658;2.328;2024-03-23T02:24:42;13.45;;;2.95;;
70549;SDS011;58101;48.658;2.328;2024-03-23T02:27:08;16.00;;;3.08;;
70549;SDS011;58101;48.658;2.328;2024-03-23T02:29:34;19.83;;;3.47;;
70549;SDS011;58101;48.658;2.328;2024-03-23T02:31:59;14.95;;;2.90;;
70549;SDS011;58101;48.658;2.328;2024-03-23T02:34:26;20.83;;;3.65;;
70549;SDS011;58101;48.658;2.328;2024-03-23T02:36:52;13.75;;;2.90;;
70549;SDS011;58101;48.658;2.328;2024-03-23T02:39:17;17.20;;;2.78;;
70549;SDS011;58101;48.658;2.328;2024-03-23T02:41:43;14.27;;;2.75;;
70549;SDS011;58101;48.658;2.328;2024-03-23T02:44:08;11.82;;;2.33;;
70549;SDS011;58101;48.658;2.328;2024-03-23T02:46:36;15.07;;;2.33;;
70549;SDS011;58101;48.658;2.328;2024-03-23T02:49:03;13.13;;;2.13;;
70549;SDS011;58101;48.658;2.328;2024-03-23T02:51:29;16.52;;;2.22;;
70549;SDS011;58101;48.658;2.328;2024-03-23T02:53:55;17.85;;;2.42;;
70549;SDS011;58101;48.658;2.328;2024-03-23T02:56:21;12.80;;;2.30;;
70549;SDS011;58101;48.658;2.328;2024-03-23T02:58:46;15.43;;;2.05;;
70549;SDS011;58101;48.658;2.328;2024-03-23T03:01:12;19.45;;;2.25;;
70549;SDS011;58101;48.658;2.328;2024-03-23T03:03:38;14.38;;;2.22;;
70549;SDS011;58101;48.658;2.328;2024-03-23T03:06:03;15.88;;;2.20;;
70549;SDS011;58101;48.658;2.328;2024-03-23T03:08:29;11.98;;;1.98;;
70549;SDS011;58101;48.658;2.328;2024-03-23T03:10:55;14.13;;;1.80;;
70549;SDS011;58101;48.658;2.328;2024-03-23T03:13:21;12.60;;;1.70;;
70549;SDS011;58101;48.658;2.328;2024-03-23T03:15:46;16.50;;;2.38;;
70549;SDS011;58101;48.658;2.328;2024-03-23T03:18:12;20.05;;;2.53;;
70549;SDS011;58101;48.658;2.328;2024-03-23T03:20:38;17.90;;;2.20;;
70549;SDS011;58101;48.658;2.328;2024-03-23T03:23:05;18.65;;;2.00;;
70549;SDS011;58101;48.658;2.328;2024-03-23T03:25:31;16.15;;;2.00;;
70549;SDS011;58101;48.658;2.328;2024-03-23T03:27:57;14.82;;;2.00;;
70549;SDS011;58101;48.658;2.328;2024-03-23T03:30:22;21.00;;;2.53;;
70549;SDS011;58101;48.658;2.328;2024-03-23T03:32:49;15.25;;;1.77;;
70549;SDS011;58101;48.658;2.328;2024-03-23T03:35:16;17.45;;;2.15;;
70549;SDS011;58101;48.658;2.328;2024-03-23T03:37:42;19.15;;;2.40;;
70549;SDS011;58101;48.658;2.328;2024-03-23T03:40:07;15.68;;;2.00;;
70549;SDS011;58101;48.658;2.328;2024-03-23T03:42:34;13.70;;;1.83;;
70549;SDS011;58101;48.658;2.328;2024-03-23T03:45:00;15.27;;;2.00;;
70549;SDS011;58101;48.658;2.328;2024-03-23T03:47:25;15.35;;;1.98;;
70549;SDS011;58101;48.658;2.328;2024-03-23T03:49:51;17.50;;;2.00;;
70549;SDS011;58101;48.658;2.328;2024-03-23T03:52:17;12.55;;;2.00;;
70549;SDS011;58101;48.658;2.328;2024-03-23T03:54:42;14.55;;;1.92;;
70549;SDS011;58101;48.658;2.328;2024-03-23T03:57:08;13.65;;;2.10;;
70549;SDS011;58101;48.658;2.328;2024-03-23T03:59:36;9.70;;;1.60;;
70549;SDS011;58101;48.658;2.328;2024-03-23T04:02:02;12.65;;;1.90;;
70549;SDS011;58101;48.658;2.328;2024-03-23T04:04:28;15.30;;;1.80;;
70549;SDS011;58101;48.658;2.328;2024-03-23T04:06:59;17.02;;;2.00;;
70549;SDS011;58101;48.658;2.328;2024-03-23T04:09:25;14.13;;;1.88;;
70549;SDS011;58101;48.658;2.328;2024-03-23T04:11:51;12.77;;;1.67;;
70549;SDS011;58101;48.658;2.328;2024-03-23T04:14:17;13.10;;;1.73;;
70549;SDS011;58101;48.658;2.328;2024-03-23T04:16:42;17.35;;;2.50;;
70549;SDS011;58101;48.658;2.328;2024-03-23T04:19:08;17.02;;;2.10;;
70549;SDS011;58101;48.658;2.328;2024-03-23T04:21:34;14.35;;;2.15;;
70549;SDS011;58101;48.658;2.328;2024-03-23T04:24:00;15.65;;;2.03;;
70549;SDS011;58101;48.658;2.328;2024-03-23T04:26:26;11.85;;;1.40;;
70549;SDS011;58101;48.658;2.328;2024-03-23T04:28:51;9.65;;;1.75;;
70549;SDS011;58101;48.658;2.328;2024-03-23T04:31:17;14.50;;;2.10;;
70549;SDS011;58101;48.658;2.328;2024-03-23T04:33:42;15.18;;;1.90;;
70549;SDS011;58101;48.658;2.328;2024-03-23T04:36:08;13.45;;;1.80;;
70549;SDS011;58101;48.658;2.328;2024-03-23T04:38:35;14.48;;;1.90;;
70549;SDS011;58101;48.658;2.328;2024-03-23T04:41:01;13.52;;;1.55;;
70549;SDS011;58101;48.658;2.328;2024-03-23T04:43:27;11.85;;;1.55;;
70549;SDS011;58101;48.658;2.328;2024-03-23T04:45:52;16.40;;;2.13;;
70549;SDS011;58101;48.658;2.328;2024-03-23T04:48:20;11.82;;;1.33;;
70549;SDS011;58101;48.658;2.328;2024-03-23T04:50:47;16.08;;;1.50;;
70549;SDS011;58101;48.658;2.328;2024-03-23T04:53:14;12.75;;;1.80;;
70549;SDS011;58101;48.658;2.328;2024-03-23T04:55:40;11.35;;;1.83;;
70549;SDS011;58101;48.658;2.328;2024-03-23T04:58:06;14.73;;;2.40;;
70549;SDS011;58101;48.658;2.328;2024-03-23T05:00:32;15.13;;;2.72;;
70549;SDS011;58101;48.658;2.328;2024-03-23T05:02:58;11.75;;;1.85;;
70549;SDS011;58101;48.658;2.328;2024-03-23T05:05:23;12.45;;;1.95;;
70549;SDS011;58101;48.658;2.328;2024-03-23T05:07:49;13.02;;;1.77;;
70549;SDS011;58101;48.658;2.328;2024-03-23T05:10:14;11.32;;;1.83;;
70549;SDS011;58101;48.658;2.328;2024-03-23T05:12:40;15.02;;;1.63;;
70549;SDS011;58101;48.658;2.328;2024-03-23T05:15:06;15.82;;;1.83;;
70549;SDS011;58101;48.658;2.328;2024-03-23T05:17:34;16.45;;;2.13;;
70549;SDS011;58101;48.658;2.328;2024-03-23T05:20:01;12.77;;;1.90;;
70549;SDS011;58101;48.658;2.328;2024-03-23T05:22:27;13.18;;;1.85;;
70549;SDS011;58101;48.658;2.328;2024-03-23T05:24:53;11.70;;;2.05;;
70549;SDS011;58101;48.658;2.328;2024-03-23T05:27:19;14.02;;;1.90;;
70549;SDS011;58101;48.658;2.328;2024-03-23T05:29:44;13.50;;;2.10;;
70549;SDS011;58101;48.658;2.328;2024-03-23T05:32:10;12.65;;;1.70;;
70549;SDS011;58101;48.658;2.328;2024-03-23T05:34:35;13.57;;;2.00;;
70549;SDS011;58101;48.658;2.328;2024-03-23T05:37:01;9.73;;;1.48;;
70549;SDS011;58101;48.658;2.328;2024-03-23T05:39:27;9.48;;;1.60;;
70549;SDS011;58101;48.658;2.328;2024-03-23T05:41:53;8.38;;;1.52;;
70549;SDS011;58101;48.658;2.328;2024-03-23T05:44:18;7.97;;;1.13;;
70549;SDS011;58101;48.658;2.328;2024-03-23T05:46:44;11.75;;;1.63;;
70549;SDS011;58101;48.658;2.328;2024-03-23T05:49:13;9.00;;;1.60;;
70549;SDS011;58101;48.658;2.328;2024-03-23T05:51:40;8.82;;;1.13;;
70549;SDS011;58101;48.658;2.328;2024-03-23T05:54:06;9.15;;;1.35;;
70549;SDS011;58101;48.658;2.328;2024-03-23T05:56:31;10.80;;;1.50;;
70549;SDS011;58101;48.658;2.328;2024-03-23T05:58:57;6.50;;;1.05;;
70549;SDS011;58101;48.658;2.328;2024-03-23T06:01:22;7.93;;;1.50;;
70549;SDS011;58101;48.658;2.328;2024-03-23T06:03:48;7.68;;;1.10;;
70549;SDS011;58101;48.658;2.328;2024-03-23T06:06:14;6.75;;;1.33;;
70549;SDS011;58101;48.658;2.328;2024-03-23T06:08:39;9.95;;;1.20;;
70549;SDS011;58101;48.658;2.328;2024-03-23T06:11:05;7.80;;;1.23;;
70549;SDS011;58101;48.658;2.328;2024-03-23T06:13:31;8.05;;;1.17;;
70549;SDS011;58101;48.658;2.328;2024-03-23T06:15:58;6.63;;;1.20;;
70549;SDS011;58101;48.658;2.328;2024-03-23T06:18:24;9.68;;;1.50;;
70549;SDS011;58101;48.658;2.328;2024-03-23T06:20:50;5.88;;;1.10;;
70549;SDS011;58101;48.658;2.328;2024-03-23T06:23:16;9.57;;;1.65;;
70549;SDS011;58101;48.658;2.328;2024-03-23T06:25:42;8.02;;;1.40;;
70549;SDS011;58101;48.658;2.328;2024-03-23T06:28:08;7.13;;;1.02;;
70549;SDS011;58101;48.658;2.328;2024-03-23T06:30:34;9.57;;;1.30;;
70549;SDS011;58101;48.658;2.328;2024-03-23T06:32:59;8.48;;;1.60;;
70549;SDS011;58101;48.658;2.328;2024-03-23T06:35:25;11.23;;;1.77;;
70549;SDS011;58101;48.658;2.328;2024-03-23T06:37:50;9.20;;;1.20;;
70549;SDS011;58101;48.658;2.328;2024-03-23T06:40:16;10.38;;;1.27;;
70549;SDS011;58101;48.658;2.328;2024-03-23T06:42:42;10.15;;;1.52;;
70549;SDS011;58101;48.658;2.328;2024-03-23T06:45:07;10.40;;;1.80;;
70549;SDS011;58101;48.658;2.328;2024-03-23T06:47:33;10.23;;;1.40;;
70549;SDS011;58101;48.658;2.328;2024-03-23T06:49:59;11.23;;;1.58;;
70549;SDS011;58101;48.658;2.328;2024-03-23T06:52:28;7.95;;;1.40;;
70549;SDS011;58101;48.658;2.328;2024-03-23T06:54:54;12.10;;;2.08;;
70549;SDS011;58101;48.658;2.328;2024-03-23T06:57:20;10.93;;;1.70;;
70549;SDS011;58101;48.658;2.328;2024-03-23T06:59:46;8.90;;;1.60;;
70549;SDS011;58101;48.658;2.328;2024-03-23T07:02:12;12.88;;;1.70;;
70549;SDS011;58101;48.658;2.328;2024-03-23T07:04:37;8.80;;;1.30;;
70549;SDS011;58101;48.658;2.328;2024-03-23T07:07:04;10.32;;;1.13;;
70549;SDS011;58101;48.658;2.328;2024-03-23T07:09:30;11.07;;;1.38;;
70549;SDS011;58101;48.658;2.328;2024-03-23T07:11:56;10.48;;;1.50;;
70549;SDS011;58101;48.658;2.328;2024-03-23T07:14:23;13.32;;;1.48;;
70549;SDS011;58101;48.658;2.328;2024-03-23T07:16:49;8.25;;;1.30;;
70549;SDS011;58101;48.658;2.328;2024-03-23T07:19:15;11.35;;;1.60;;
70549;SDS011;58101;48.658;2.328;2024-03-23T07:21:42;8.20;;;1.73;;
70549;SDS011;58101;48.658;2.328;2024-03-23T07:24:08;14.20;;;1.90;;
70549;SDS011;58101;48.658;2.328;2024-03-23T07:26:34;10.45;;;1.25;;
70549;SDS011;58101;48.658;2.328;2024-03-23T07:29:00;8.82;;;1.55;;
70549;SDS011;58101;48.658;2.328;2024-03-23T07:31:25;10.02;;;1.45;;
70549;SDS011;58101;48.658;2.328;2024-03-23T07:33:51;11.40;;;1.45;;
70549;SDS011;58101;48.658;2.328;2024-03-23T07:36:17;10.32;;;1.50;;
70549;SDS011;58101;48.658;2.328;2024-03-23T07:38:42;10.95;;;1.27;;
70549;SDS011;58101;48.658;2.328;2024-03-23T07:41:14;8.68;;;1.33;;
70549;SDS011;58101;48.658;2.328;2024-03-23T07:43:44;7.50;;;1.23;;
70549;SDS011;58101;48.658;2.328;2024-03-23T07:46:10;12.80;;;1.90;;
70549;SDS011;58101;48.658;2.328;2024-03-23T07:48:37;12.40;;;1.70;;
70549;SDS011;58101;48.658;2.328;2024-03-23T07:51:07;8.00;;;1.70;;
70549;SDS011;58101;48.658;2.328;2024-03-23T07:53:42;7.88;;;1.20;;
70549;SDS011;58101;48.658;2.328;2024-03-23T07:56:09;11.20;;;1.50;;
70549;SDS011;58101;48.658;2.328;2024-03-23T07:58:36;10.00;;;1.40;;
70549;SDS011;58101;48.658;2.328;2024-03-23T08:01:06;8.38;;;1.08;;
70549;SDS011;58101;48.658;2.328;2024-03-23T08:03:33;9.57;;;1.50;;
70549;SDS011;58101;48.658;2.328;2024-03-23T08:08:38;9.00;;;1.27;;
70549;SDS011;58101;48.658;2.328;2024-03-23T08:11:05;6.63;;;1.08;;
70549;SDS011;58101;48.658;2.328;2024-03-23T08:13:32;8.85;;;1.17;;
70549;SDS011;58101;48.658;2.328;2024-03-23T08:15:58;8.18;;;1.08;;
70549;SDS011;58101;48.658;2.328;2024-03-23T08:18:24;5.63;;;1.05;;
70549;SDS011;58101;48.658;2.328;2024-03-23T08:21:00;7.78;;;0.98;;
70549;SDS011;58101;48.658;2.328;2024-03-23T08:23:27;7.28;;;1.25;;
70549;SDS011;58101;48.658;2.328;2024-03-23T08:26:00;6.78;;;1.05;;
70549;SDS011;58101;48.658;2.328;2024-03-23T08:28:26;5.95;;;0.90;;
70549;SDS011;58101;48.658;2.328;2024-03-23T08:30:53;7.20;;;1.25;;
70549;SDS011;58101;48.658;2.328;2024-03-23T08:35:58;7.85;;;1.02;;
70549;SDS011;58101;48.658;2.328;2024-03-23T08:38:25;6.32;;;1.13;;
70549;SDS011;58101;48.658;2.328;2024-03-23T08:40:58;6.65;;;1.15;;
70549;SDS011;58101;48.658;2.328;2024-03-23T08:43:24;7.75;;;1.23;;
70549;SDS011;58101;48.658;2.328;2024-03-23T08:45:50;6.93;;;1.30;;
70549;SDS011;58101;48.658;2.328;2024-03-23T08:48:17;8.27;;;1.00;;
70549;SDS011;58101;48.658;2.328;2024-03-23T08:50:45;7.13;;;1.20;;
70549;SDS011;58101;48.658;2.328;2024-03-23T08:53:11;6.45;;;1.27;;
70549;SDS011;58101;48.658;2.328;2024-03-23T08:55:37;11.00;;;1.48;;
70549;SDS011;58101;48.658;2.328;2024-03-23T08:58:02;9.27;;;1.42;;
70549;SDS011;58101;48.658;2.328;2024-03-23T09:02:54;6.45;;;1.10;;
70549;SDS011;58101;48.658;2.328;2024-03-23T09:05:21;8.30;;;1.02;;
70549;SDS011;58101;48.658;2.328;2024-03-23T09:07:49;5.90;;;0.85;;
70549;SDS011;58101;48.658;2.328;2024-03-23T09:10:14;7.00;;;1.20;;
70549;SDS011;58101;48.658;2.328;2024-03-23T09:12:40;7.97;;;1.23;;
70549;SDS011;58101;48.658;2.328;2024-03-23T09:15:06;10.48;;;1.30;;
70549;SDS011;58101;48.658;2.328;2024-03-23T09:17:32;11.55;;;1.20;;
70549;SDS011;58101;48.658;2.328;2024-03-23T09:19:57;8.32;;;1.10;;
70549;SDS011;58101;48.658;2.328;2024-03-23T09:22:23;8.50;;;1.30;;
70549;SDS011;58101;48.658;2.328;2024-03-23T09:24:49;5.65;;;1.13;;
70549;SDS011;58101;48.658;2.328;2024-03-23T09:27:14;6.20;;;1.00;;
70549;SDS011;58101;48.658;2.328;2024-03-23T09:29:40;6.65;;;1.05;;
70549;SDS011;58101;48.658;2.328;2024-03-23T09:32:05;7.90;;;1.20;;
70549;SDS011;58101;48.658;2.328;2024-03-23T09:34:31;9.68;;;1.02;;
70549;SDS011;58101;48.658;2.328;2024-03-23T09:36:57;7.57;;;1.10;;
70549;SDS011;58101;48.658;2.328;2024-03-23T09:39:22;8.00;;;1.00;;
70549;SDS011;58101;48.658;2.328;2024-03-23T09:41:48;9.32;;;1.10;;
70549;SDS011;58101;48.658;2.328;2024-03-23T09:44:13;6.25;;;1.20;;
70549;SDS011;58101;48.658;2.328;2024-03-23T09:46:39;6.72;;;1.10;;
70549;SDS011;58101;48.658;2.328;2024-03-23T09:49:07;9.35;;;1.10;;
70549;SDS011;58101;48.658;2.328;2024-03-23T09:51:35;6.95;;;1.13;;
70549;SDS011;58101;48.658;2.328;2024-03-23T09:54:01;7.22;;;1.10;;
70549;SDS011;58101;48.658;2.328;2024-03-23T09:56:27;6.53;;;1.20;;
70549;SDS011;58101;48.658;2.328;2024-03-23T09:58:59;5.85;;;1.02;;
70549;SDS011;58101;48.658;2.328;2024-03-23T10:01:31;7.15;;;1.40;;
70549;SDS011;58101;48.658;2.328;2024-03-23T10:03:57;6.03;;;1.02;;
70549;SDS011;58101;48.658;2.328;2024-03-23T10:06:22;7.78;;;1.30;;
70549;SDS011;58101;48.658;2.328;2024-03-23T10:08:52;5.32;;;1.08;;
70549;SDS011;58101;48.658;2.328;2024-03-23T10:11:20;6.97;;;1.10;;
70549;SDS011;58101;48.658;2.328;2024-03-23T10:13:46;7.90;;;1.10;;
70549;SDS011;58101;48.658;2.328;2024-03-23T10:16:12;7.75;;;1.17;;
70549;SDS011;58101;48.658;2.328;2024-03-23T10:18:47;6.32;;;1.10;;
70549;SDS011;58101;48.658;2.328;2024-03-23T10:21:14;7.28;;;1.10;;
70549;SDS011;58101;48.658;2.328;2024-03-23T10:23:41;6.63;;;1.10;;
70549;SDS011;58101;48.658;2.328;2024-03-23T10:31:25;5.50;;;1.00;;
70549;SDS011;58101;48.658;2.328;2024-03-23T10:33:51;8.65;;;1.10;;
70549;SDS011;58101;48.658;2.328;2024-03-23T10:36:19;6.75;;;1.00;;
70549;SDS011;58101;48.658;2.328;2024-03-23T10:38:45;5.82;;;1.13;;
70549;SDS011;58101;48.658;2.328;2024-03-23T10:41:12;6.22;;;1.30;;
70549;SDS011;58101;48.658;2.328;2024-03-23T10:43:38;10.05;;;1.00;;
70549;SDS011;58101;48.658;2.328;2024-03-23T10:46:04;6.75;;;1.10;;
70549;SDS011;58101;48.658;2.328;2024-03-23T10:48:32;5.30;;;0.95;;
70549;SDS011;58101;48.658;2.328;2024-03-23T10:50:58;8.50;;;1.00;;
70549;SDS011;58101;48.658;2.328;2024-03-23T10:53:28;5.55;;;1.00;;
70549;SDS011;58101;48.658;2.328;2024-03-23T10:55:54;6.07;;;1.05;;
70549;SDS011;58101;48.658;2.328;2024-03-23T10:58:23;9.82;;;1.13;;
70549;SDS011;58101;48.658;2.328;2024-03-23T11:00:57;7.35;;;1.27;;
70549;SDS011;58101;48.658;2.328;2024-03-23T11:03:30;6.78;;;1.02;;
70549;SDS011;58101;48.658;2.328;2024-03-23T11:05:57;5.78;;;1.05;;
70549;SDS011;58101;48.658;2.328;2024-03-23T11:08:57;6.15;;;1.15;;
70549;SDS011;58101;48.658;2.328;2024-03-23T11:13:53;8.02;;;1.10;;
70549;SDS011;58101;48.658;2.328;2024-03-23T11:18:53;4.10;;;0.93;;
70549;SDS011;58101;48.658;2.328;2024-03-23T11:21:51;8.32;;;1.58;;
70549;SDS011;58101;48.658;2.328;2024-03-23T11:24:21;7.10;;;1.02;;
70549;SDS011;58101;48.658;2.328;2024-03-23T11:26:47;8.15;;;1.67;;
70549;SDS011;58101;48.658;2.328;2024-03-23T11:29:14;12.35;;;1.88;;
70549;SDS011;58101;48.658;2.328;2024-03-23T11:31:59;6.93;;;1.27;;
70549;SDS011;58101;48.658;2.328;2024-03-23T11:34:26;9.32;;;1.23;;
70549;SDS011;58101;48.658;2.328;2024-03-23T11:37:02;5.75;;;1.08;;
70549;SDS011;58101;48.658;2.328;2024-03-23T11:39:29;10.50;;;1.00;;
70549;SDS011;58101;48.658;2.328;2024-03-23T11:41:56;6.07;;;1.00;;
70549;SDS011;58101;48.658;2.328;2024-03-23T11:44:22;8.88;;;1.38;;
70549;SDS011;58101;48.658;2.328;2024-03-23T11:46:50;8.43;;;1.50;;
70549;SDS011;58101;48.658;2.328;2024-03-23T11:49:29;8.35;;;1.27;;
70549;SDS011;58101;48.658;2.328;2024-03-23T11:51:55;6.28;;;1.15;;
70549;SDS011;58101;48.658;2.328;2024-03-23T11:54:22;5.82;;;1.20;;
70549;SDS011;58101;48.658;2.328;2024-03-23T11:57:01;9.20;;;1.50;;
70549;SDS011;58101;48.658;2.328;2024-03-23T11:59:36;9.10;;;1.85;;
70549;SDS011;58101;48.658;2.328;2024-03-23T12:02:10;9.70;;;1.40;;
70549;SDS011;58101;48.658;2.328;2024-03-23T12:04:36;8.05;;;1.17;;
70549;SDS011;58101;48.658;2.328;2024-03-23T12:09:34;6.63;;;1.27;;
70549;SDS011;58101;48.658;2.328;2024-03-23T12:12:05;10.32;;;1.77;;
70549;SDS011;58101;48.658;2.328;2024-03-23T12:14:32;7.43;;;1.38;;
70549;SDS011;58101;48.658;2.328;2024-03-23T12:17:08;9.15;;;1.73;;
70549;SDS011;58101;48.658;2.328;2024-03-23T12:19:35;7.38;;;1.20;;
70549;SDS011;58101;48.658;2.328;2024-03-23T12:22:00;6.30;;;1.40;;
70549;SDS011;58101;48.658;2.328;2024-03-23T12:24:32;7.72;;;1.70;;
70549;SDS011;58101;48.658;2.328;2024-03-23T12:27:01;7.85;;;1.10;;
70549;SDS011;58101;48.658;2.328;2024-03-23T12:29:30;9.10;;;2.10;;
70549;SDS011;58101;48.658;2.328;2024-03-23T12:32:00;7.70;;;1.38;;
70549;SDS011;58101;48.658;2.328;2024-03-23T12:34:26;7.82;;;1.25;;
70549;SDS011;58101;48.658;2.328;2024-03-23T12:36:53;6.22;;;1.42;;
70549;SDS011;58101;48.658;2.328;2024-03-23T12:39:18;6.85;;;1.52;;
70549;SDS011;58101;48.658;2.328;2024-03-23T12:41:46;6.15;;;1.17;;
70549;SDS011;58101;48.658;2.328;2024-03-23T12:44:12;6.22;;;1.20;;
70549;SDS011;58101;48.658;2.328;2024-03-23T12:46:38;8.45;;;1.20;;
70549;SDS011;58101;48.658;2.328;2024-03-23T12:49:04;6.43;;;1.52;;
70549;SDS011;58101;48.658;2.328;2024-03-23T12:51:31;7.07;;;1.30;;
70549;SDS011;58101;48.658;2.328;2024-03-23T12:53:57;5.05;;;1.23;;
70549;SDS011;58101;48.658;2.328;2024-03-23T12:56:22;7.25;;;1.10;;
70549;SDS011;58101;48.658;2.328;2024-03-23T12:58:48;5.65;;;1.05;;
70549;SDS011;58101;48.658;2.328;2024-03-23T13:01:16;6.32;;;1.45;;
70549;SDS011;58101;48.658;2.328;2024-03-23T13:03:42;5.68;;;1.17;;
70549;SDS011;58101;48.658;2.328;2024-03-23T13:06:11;5.97;;;1.20;;
70549;SDS011;58101;48.658;2.328;2024-03-23T13:08:36;10.07;;;1.30;;
70549;SDS011;58101;48.658;2.328;2024-03-23T13:11:02;9.88;;;1.40;;
70549;SDS011;58101;48.658;2.328;2024-03-23T13:13:28;5.20;;;1.10;;
70549;SDS011;58101;48.658;2.328;2024-03-23T13:15:54;6.28;;;1.00;;
70549;SDS011;58101;48.658;2.328;2024-03-23T13:18:19;6.18;;;1.02;;
70549;SDS011;58101;48.658;2.328;2024-03-23T13:20:45;5.15;;;0.80;;
70549;SDS011;58101;48.658;2.328;2024-03-23T13:23:10;6.13;;;0.82;;
70549;SDS011;58101;48.658;2.328;2024-03-23T13:25:36;5.82;;;1.10;;
70549;SDS011;58101;48.658;2.328;2024-03-23T13:28:02;5.65;;;1.20;;
70549;SDS011;58101;48.658;2.328;2024-03-23T13:30:28;3.65;;;0.90;;
70549;SDS011;58101;48.658;2.328;2024-03-23T13:32:54;5.00;;;1.30;;
70549;SDS011;58101;48.658;2.328;2024-03-23T13:35:20;5.22;;;0.80;;
70549;SDS011;58101;48.658;2.328;2024-03-23T13:37:46;4.90;;;1.13;;
70549;SDS011;58101;48.658;2.328;2024-03-23T13:40:12;4.53;;;0.90;;
70549;SDS011;58101;48.658;2.328;2024-03-23T13:42:37;4.40;;;0.70;;
70549;SDS011;58101;48.658;2.328;2024-03-23T13:45:03;6.93;;;1.17;;
70549;SDS011;58101;48.658;2.328;2024-03-23T13:47:29;4.60;;;1.00;;
70549;SDS011;58101;48.658;2.328;2024-03-23T13:49:54;9.32;;;1.30;;
70549;SDS011;58101;48.658;2.328;2024-03-23T13:52:21;7.13;;;1.40;;
70549;SDS011;58101;48.658;2.328;2024-03-23T13:54:50;6.43;;;1.25;;
70549;SDS011;58101;48.658;2.328;2024-03-23T13:57:17;6.85;;;1.00;;
70549;SDS011;58101;48.658;2.328;2024-03-23T13:59:46;5.93;;;0.90;;
70549;SDS011;58101;48.658;2.328;2024-03-23T14:02:12;3.75;;;0.60;;
70549;SDS011;58101;48.658;2.328;2024-03-23T14:04:39;6.32;;;1.35;;
70549;SDS011;58101;48.658;2.328;2024-03-23T14:07:05;8.63;;;1.45;;
70549;SDS011;58101;48.658;2.328;2024-03-23T14:09:32;4.55;;;0.77;;
70549;SDS011;58101;48.658;2.328;2024-03-23T14:11:58;7.07;;;1.20;;
70549;SDS011;58101;48.658;2.328;2024-03-23T14:14:25;6.57;;;1.00;;
70549;SDS011;58101;48.658;2.328;2024-03-23T14:16:50;5.57;;;1.02;;
70549;SDS011;58101;48.658;2.328;2024-03-23T14:19:16;5.13;;;1.00;;
70549;SDS011;58101;48.658;2.328;2024-03-23T14:21:42;6.13;;;1.00;;
70549;SDS011;58101;48.658;2.328;2024-03-23T14:24:07;4.43;;;0.90;;
70549;SDS011;58101;48.658;2.328;2024-03-23T14:29:00;3.85;;;0.77;;
70549;SDS011;58101;48.658;2.328;2024-03-23T14:31:26;5.35;;;0.80;;
70549;SDS011;58101;48.658;2.328;2024-03-23T14:33:51;4.78;;;0.75;;
70549;SDS011;58101;48.658;2.328;2024-03-23T14:36:17;5.85;;;0.80;;
70549;SDS011;58101;48.658;2.328;2024-03-23T14:38:52;5.05;;;1.02;;
70549;SDS011;58101;48.658;2.328;2024-03-23T14:41:17;3.70;;;0.80;;
70549;SDS011;58101;48.658;2.328;2024-03-23T14:43:43;4.53;;;0.93;;
70549;SDS011;58101;48.658;2.328;2024-03-23T14:48:39;3.40;;;0.90;;
70549;SDS011;58101;48.658;2.328;2024-03-23T14:51:06;4.50;;;0.68;;
70549;SDS011;58101;48.658;2.328;2024-03-23T14:53:37;2.88;;;0.63;;
70549;SDS011;58101;48.658;2.328;2024-03-23T14:56:05;5.65;;;0.88;;
70549;SDS011;58101;48.658;2.328;2024-03-23T14:58:31;5.65;;;0.90;;
70549;SDS011;58101;48.658;2.328;2024-03-23T15:01:01;5.22;;;1.00;;
70549;SDS011;58101;48.658;2.328;2024-03-23T15:03:26;5.60;;;1.10;;
70549;SDS011;58101;48.658;2.328;2024-03-23T15:05:53;5.70;;;0.98;;
70549;SDS011;58101;48.658;2.328;2024-03-23T15:08:22;7.68;;;1.23;;
70549;SDS011;58101;48.658;2.328;2024-03-23T15:10:48;5.63;;;1.20;;
70549;SDS011;58101;48.658;2.328;2024-03-23T15:13:14;6.03;;;1.00;;
70549;SDS011;58101;48.658;2.328;2024-03-23T15:15:43;5.63;;;0.90;;
70549;SDS011;58101;48.658;2.328;2024-03-23T15:18:13;6.38;;;1.10;;
70549;SDS011;58101;48.658;2.328;2024-03-23T15:20:57;6.57;;;1.05;;
70549;SDS011;58101;48.658;2.328;2024-03-23T15:23:27;7.50;;;1.10;;
70549;SDS011;58101;48.658;2.328;2024-03-23T15:25:57;6.93;;;1.17;;
70549;SDS011;58101;48.658;2.328;2024-03-23T15:28:24;4.43;;;0.95;;
70549;SDS011;58101;48.658;2.328;2024-03-23T15:31:26;5.15;;;1.23;;
70549;SDS011;58101;48.658;2.328;2024-03-23T15:33:51;8.25;;;1.23;;
70549;SDS011;58101;48.658;2.328;2024-03-23T15:36:17;6.05;;;1.20;;
70549;SDS011;58101;48.658;2.328;2024-03-23T15:38:43;6.40;;;1.00;;
70549;SDS011;58101;48.658;2.328;2024-03-23T15:41:09;7.35;;;1.15;;
70549;SDS011;58101;48.658;2.328;2024-03-23T15:43:35;8.07;;;1.27;;
70549;SDS011;58101;48.658;2.328;2024-03-23T15:46:01;5.57;;;0.90;;
70549;SDS011;58101;48.658;2.328;2024-03-23T15:48:29;5.40;;;0.95;;
70549;SDS011;58101;48.658;2.328;2024-03-23T15:50:56;7.30;;;1.30;;
70549;SDS011;58101;48.658;2.328;2024-03-23T15:53:26;6.20;;;1.38;;
70549;SDS011;58101;48.658;2.328;2024-03-23T15:55:56;4.97;;;1.13;;
70549;SDS011;58101;48.658;2.328;2024-03-23T15:58:26;5.22;;;1.05;;